createdAt,value
2019-03-15T00:03:00.098Z,3.97
2019-03-15T00:07:05.552Z,4.57
2019-03-15T00:11:10.895Z,4.10
2019-03-15T00:15:16.311Z,4.30
2019-03-15T00:19:21.945Z,4.00
2019-03-15T00:23:27.509Z,4.47
2019-03-15T00:27:33.063Z,4.37
2019-03-15T00:31:38.552Z,5.00
2019-03-15T00:35:43.995Z,4.93
2019-03-15T00:39:49.608Z,5.07
2019-03-15T00:43:54.996Z,4.40
2019-03-15T00:48:00.452Z,4.63
2019-03-15T00:52:05.882Z,5.23
2019-03-15T00:56:11.763Z,4.60
2019-03-15T01:00:17.375Z,5.47
2019-03-15T01:04:22.686Z,4.70
2019-03-15T01:08:28.142Z,4.93
2019-03-15T01:12:33.918Z,3.90
2019-03-15T01:16:39.621Z,4.30
2019-03-15T01:20:45.321Z,4.40
2019-03-15T01:24:50.673Z,4.73
2019-03-15T01:28:55.991Z,3.73
2019-03-15T01:33:01.439Z,4.50
2019-03-15T01:37:07.119Z,3.57
2019-03-15T01:41:12.481Z,3.80
2019-03-15T01:45:18.458Z,3.70
2019-03-15T01:49:24.039Z,3.50
2019-03-15T01:53:29.411Z,3.20
2019-03-15T01:57:35.065Z,3.20
2019-03-15T02:01:40.398Z,2.87
2019-03-15T02:05:45.816Z,3.07
2019-03-15T02:09:51.627Z,3.90
2019-03-15T02:13:57.401Z,3.40
2019-03-15T02:18:02.825Z,3.40
2019-03-15T02:22:08.531Z,4.67
2019-03-15T02:26:14.334Z,3.83
2019-03-15T02:30:19.777Z,3.93
2019-03-15T02:34:25.438Z,3.10
2019-03-15T02:38:30.920Z,3.20
2019-03-15T02:42:36.377Z,3.40
2019-03-15T02:46:41.799Z,2.90
2019-03-15T02:50:47.263Z,3.00
2019-03-15T02:54:53.711Z,2.60
2019-03-15T02:59:00.034Z,2.97
2019-03-15T03:03:05.468Z,3.43
2019-03-15T03:07:11.182Z,3.47
2019-03-15T03:11:16.634Z,3.00
2019-03-15T03:15:21.995Z,2.80
2019-03-15T03:19:28.199Z,3.00
2019-03-15T03:23:33.902Z,2.93
2019-03-15T03:27:39.180Z,3.47
2019-03-15T03:31:45.593Z,3.90
2019-03-15T03:35:51.474Z,2.30
2019-03-15T03:39:56.845Z,3.50
2019-03-15T03:44:02.271Z,3.50
2019-03-15T03:48:08.510Z,2.70
2019-03-15T03:52:13.937Z,2.90
2019-03-15T03:56:19.410Z,3.40
2019-03-15T04:00:24.925Z,4.00
2019-03-15T04:04:30.375Z,2.53
2019-03-15T04:08:35.876Z,4.37
2019-03-15T04:12:41.433Z,2.33
2019-03-15T04:16:46.806Z,3.30
2019-03-15T04:20:52.115Z,2.97
2019-03-15T04:24:57.541Z,3.00
2019-03-15T04:29:02.941Z,2.60
2019-03-15T04:33:08.636Z,3.03
2019-03-15T04:37:13.862Z,3.23
2019-03-15T04:41:19.287Z,2.83
2019-03-15T04:45:24.557Z,3.27
2019-03-15T04:49:30.000Z,3.43
2019-03-15T04:53:35.675Z,3.20
2019-03-15T04:57:41.041Z,3.47
2019-03-15T05:01:46.662Z,3.87
2019-03-15T05:06:11.496Z,3.53
2019-03-15T05:10:16.993Z,3.93
2019-03-15T05:14:22.385Z,3.77
2019-03-15T05:18:27.738Z,3.43
2019-03-15T05:22:33.679Z,4.63
2019-03-15T05:26:39.115Z,4.30
2019-03-15T05:30:44.485Z,3.67
2019-03-15T05:34:49.776Z,4.70
2019-03-15T05:38:55.462Z,3.77
2019-03-15T05:43:00.908Z,4.20
2019-03-15T05:47:06.345Z,3.57
2019-03-15T05:51:11.895Z,5.00
2019-03-15T05:55:17.329Z,4.17
2019-03-15T05:59:22.824Z,4.33
2019-03-15T06:03:28.494Z,4.93
2019-03-15T06:07:33.948Z,3.80
2019-03-15T06:11:39.424Z,3.73
2019-03-15T06:15:48.334Z,3.70
2019-03-15T06:19:54.111Z,4.47
2019-03-15T06:23:59.991Z,3.93
2019-03-15T06:28:05.891Z,4.60
2019-03-15T06:32:12.009Z,4.10
2019-03-15T06:36:17.511Z,4.00
2019-03-15T06:40:23.061Z,4.00
2019-03-15T06:44:29.082Z,4.40
2019-03-15T06:48:34.530Z,4.27
2019-03-15T06:52:40.290Z,3.83
2019-03-15T06:56:46.001Z,4.17
2019-03-15T07:00:54.633Z,4.40
2019-03-15T07:04:58.822Z,4.67
2019-03-15T07:09:07.280Z,4.80
2019-03-15T07:13:12.847Z,4.57
2019-03-15T07:17:18.295Z,5.03
2019-03-15T07:21:24.053Z,4.97
2019-03-15T07:25:29.487Z,4.50
2019-03-15T07:29:34.912Z,4.53
2019-03-15T07:33:40.321Z,4.43
2019-03-15T07:37:46.071Z,5.03
2019-03-15T07:41:51.449Z,4.53
2019-03-15T07:45:57.153Z,4.47
2019-03-15T07:50:02.745Z,4.03
2019-03-15T07:54:08.135Z,4.50
2019-03-15T07:58:13.458Z,4.03
2019-03-15T08:02:18.922Z,4.17
2019-03-15T08:06:34.272Z,3.90
2019-03-15T08:10:31.612Z,3.87
2019-03-15T08:14:37.324Z,3.70
2019-03-15T08:18:42.780Z,3.47
2019-03-15T08:22:48.214Z,4.40
2019-03-15T08:26:53.679Z,3.47
2019-03-15T08:30:59.030Z,5.33
2019-03-15T08:35:04.729Z,4.53
2019-03-15T08:39:10.238Z,4.30
2019-03-15T08:43:16.043Z,6.63
2019-03-15T08:47:21.895Z,6.20
2019-03-15T08:51:27.577Z,6.27
2019-03-15T08:55:33.046Z,7.80
2019-03-15T08:59:38.326Z,9.47
2019-03-15T09:03:43.774Z,9.23
2019-03-15T09:07:49.224Z,8.80
2019-03-15T09:11:55.034Z,9.53
2019-03-15T09:16:00.347Z,10.73
2019-03-15T09:20:06.301Z,10.53
2019-03-15T09:24:11.815Z,7.17
2019-03-15T09:28:17.261Z,8.40
2019-03-15T09:32:22.761Z,9.00
2019-03-15T09:36:28.195Z,7.73
2019-03-15T09:40:33.635Z,8.97
2019-03-15T09:44:39.130Z,8.00
2019-03-15T09:48:44.901Z,9.33
2019-03-15T09:52:50.597Z,7.47
2019-03-15T09:56:55.963Z,9.37
2019-03-15T10:01:01.711Z,9.33
2019-03-15T10:05:11.342Z,9.80
2019-03-15T10:09:14.877Z,8.77
2019-03-15T10:13:20.695Z,9.77
2019-03-15T10:17:25.953Z,9.80
2019-03-15T10:21:32.706Z,10.97
2019-03-15T10:25:46.699Z,10.27
2019-03-15T10:29:45.259Z,12.57
2019-03-15T10:33:51.092Z,13.20
2019-03-15T10:37:56.745Z,13.57
2019-03-15T10:42:02.114Z,11.07
2019-03-15T10:46:07.607Z,18.00
2019-03-15T10:50:13.478Z,16.97
2019-03-15T10:54:18.879Z,16.83
2019-03-15T10:58:24.340Z,15.57
2019-03-15T11:02:29.751Z,14.33
2019-03-15T11:06:35.181Z,14.83
2019-03-15T11:10:40.566Z,15.87
2019-03-15T11:14:46.263Z,13.90
2019-03-15T11:18:51.883Z,14.30
2019-03-15T11:22:57.411Z,15.63
2019-03-15T11:27:03.304Z,15.60
2019-03-15T11:31:08.816Z,13.93
2019-03-15T11:35:14.510Z,16.17
2019-03-15T11:39:20.909Z,13.20
2019-03-15T11:43:26.435Z,13.67
2019-03-15T11:47:44.478Z,13.80
2019-03-15T11:51:42.323Z,13.00
2019-03-15T11:55:46.843Z,12.13
2019-03-15T11:59:52.218Z,12.43
2019-03-15T12:03:58.007Z,10.77
2019-03-15T12:08:03.366Z,10.40
2019-03-15T12:12:08.891Z,9.07
2019-03-15T12:16:14.240Z,8.60
2019-03-15T12:20:19.780Z,8.23
2019-03-15T12:24:25.523Z,7.50
2019-03-15T12:28:30.990Z,7.93
2019-03-15T12:32:36.451Z,6.20
2019-03-15T12:36:41.944Z,6.50
2019-03-15T12:40:47.770Z,5.70
2019-03-15T12:44:53.140Z,5.03
2019-03-15T12:48:58.507Z,5.17
2019-03-15T12:53:03.867Z,5.27
2019-03-15T12:57:09.322Z,5.37
2019-03-15T13:01:14.873Z,5.87
2019-03-15T13:05:20.573Z,4.70
2019-03-15T13:09:25.886Z,4.87
2019-03-15T13:13:31.347Z,4.40
2019-03-15T13:17:36.859Z,4.50
2019-03-15T13:21:42.298Z,4.40
2019-03-15T13:25:47.675Z,4.23
2019-03-15T13:29:53.385Z,3.47
2019-03-15T13:33:58.766Z,4.27
2019-03-15T13:38:04.200Z,3.67
2019-03-15T13:42:09.622Z,2.90
2019-03-15T13:46:17.406Z,3.50
2019-03-15T13:50:23.112Z,3.83
2019-03-15T13:54:28.600Z,3.17
2019-03-15T13:58:34.077Z,3.20
2019-03-15T14:02:39.725Z,2.80
2019-03-15T14:06:45.126Z,3.07
2019-03-15T14:10:50.482Z,3.00
2019-03-15T14:14:55.955Z,2.60
2019-03-15T14:19:01.332Z,2.73
2019-03-15T14:23:07.013Z,2.73
2019-03-15T14:27:12.460Z,2.77
2019-03-15T14:31:17.875Z,2.70
2019-03-15T14:35:23.650Z,2.13
2019-03-15T14:39:29.238Z,2.23
2019-03-15T14:43:34.642Z,2.70
2019-03-15T14:47:40.241Z,2.13
2019-03-15T14:51:45.701Z,2.17
2019-03-15T14:55:51.354Z,2.20
2019-03-15T14:59:56.648Z,1.90
2019-03-15T15:04:02.063Z,1.87
2019-03-15T15:08:07.526Z,2.20
2019-03-15T15:12:12.878Z,2.80
2019-03-15T15:16:18.502Z,2.30
2019-03-15T15:20:23.937Z,3.23
2019-03-15T15:24:29.654Z,2.90
2019-03-15T15:28:35.409Z,2.50
2019-03-15T15:32:40.799Z,2.20
2019-03-15T15:36:46.202Z,2.60
2019-03-15T15:40:51.593Z,2.80
2019-03-15T15:44:57.069Z,3.07
2019-03-15T15:49:02.375Z,3.20
2019-03-15T15:53:10.912Z,3.57
2019-03-15T15:57:15.029Z,3.40
2019-03-15T16:01:20.494Z,3.10
2019-03-15T16:05:26.005Z,3.30
2019-03-15T16:09:31.691Z,3.40
2019-03-15T16:13:36.963Z,3.60
2019-03-15T16:17:45.462Z,3.87
2019-03-15T16:21:50.395Z,3.97
2019-03-15T16:25:56.295Z,3.60
2019-03-15T16:30:01.600Z,3.60
2019-03-15T16:34:07.094Z,4.10
2019-03-15T16:38:12.536Z,4.03
2019-03-15T16:42:17.971Z,4.13
2019-03-15T16:46:23.671Z,4.03
2019-03-15T16:50:29.143Z,4.57
2019-03-15T16:54:34.606Z,4.23
2019-03-15T16:58:45.243Z,4.23
2019-03-15T17:02:47.347Z,4.20
2019-03-15T17:06:53.087Z,4.60
2019-03-15T17:10:58.769Z,4.43
2019-03-15T17:15:04.591Z,4.47
2019-03-15T17:19:10.016Z,4.13
2019-03-15T17:23:15.525Z,4.83
2019-03-15T17:27:20.946Z,5.53
2019-03-15T17:31:26.374Z,4.50
2019-03-15T17:35:31.863Z,5.03
2019-03-15T17:39:37.206Z,4.40
2019-03-15T17:43:42.659Z,5.93
2019-03-15T17:47:48.786Z,5.90
2019-03-15T17:51:54.329Z,4.50
2019-03-15T17:56:00.008Z,5.37
2019-03-15T18:00:36.266Z,9.33
2019-03-15T18:04:41.635Z,5.90
2019-03-15T18:08:47.149Z,7.27
2019-03-15T18:12:52.667Z,7.53
2019-03-15T18:16:58.119Z,3.80
2019-03-15T18:21:04.191Z,2.67
2019-03-15T18:25:09.692Z,2.70
2019-03-15T18:29:25.894Z,2.37
2019-03-15T18:33:22.316Z,2.60
2019-03-15T18:37:27.727Z,2.10
2019-03-15T18:41:33.424Z,2.70
2019-03-15T18:45:38.968Z,2.73
2019-03-15T18:49:44.439Z,2.80
2019-03-15T18:53:49.935Z,1.90
2019-03-15T18:57:55.770Z,2.00
2019-03-15T19:02:01.318Z,2.40
2019-03-15T19:06:06.713Z,2.73
2019-03-15T19:10:12.623Z,2.50
2019-03-15T19:14:18.079Z,2.10
2019-03-15T19:18:23.565Z,2.33
2019-03-15T19:22:28.981Z,2.30
2019-03-15T19:26:34.448Z,2.10
2019-03-15T19:30:39.869Z,3.27
2019-03-15T19:34:45.331Z,2.47
2019-03-15T19:38:50.779Z,2.87
2019-03-15T19:42:56.219Z,3.33
2019-03-15T19:47:01.583Z,2.83
2019-03-15T19:51:07.011Z,3.03
2019-03-15T19:55:13.262Z,3.33
2019-03-15T19:59:19.316Z,3.37
2019-03-15T20:03:24.778Z,3.23
2019-03-15T20:07:30.271Z,2.70
2019-03-15T20:11:35.769Z,3.00
2019-03-15T20:15:41.124Z,3.83
2019-03-15T20:19:46.617Z,3.73
2019-03-15T20:23:51.841Z,2.93
2019-03-15T20:27:57.140Z,3.50
2019-03-15T20:32:02.564Z,3.80
2019-03-15T20:41:48.763Z,3.20
2019-03-15T20:45:54.341Z,4.03
2019-03-15T20:50:00.070Z,4.33
2019-03-15T20:54:05.613Z,4.27
2019-03-15T20:58:11.456Z,3.63
2019-03-15T21:02:17.154Z,3.27
2019-03-15T21:06:22.638Z,4.00
2019-03-15T21:10:28.093Z,3.53
2019-03-15T21:14:33.795Z,3.80
2019-03-15T21:18:39.094Z,3.63
2019-03-15T21:22:44.648Z,3.33
2019-03-15T21:26:50.388Z,3.90
2019-03-15T21:30:56.084Z,3.50
2019-03-15T21:35:01.520Z,3.30
2019-03-15T21:39:09.762Z,4.10
2019-03-15T21:43:15.431Z,4.30
2019-03-15T21:47:20.973Z,4.37
2019-03-15T21:51:26.430Z,4.77
2019-03-15T21:55:31.896Z,4.47
2019-03-15T21:59:39.067Z,4.87
2019-03-15T22:03:44.519Z,4.70
2019-03-15T22:07:50.010Z,4.10
2019-03-15T22:11:55.592Z,4.23
2019-03-15T22:16:00.982Z,4.23
2019-03-15T22:20:07.458Z,4.23
2019-03-15T22:24:12.911Z,4.00
2019-03-15T22:28:18.345Z,4.20
2019-03-15T22:32:24.083Z,4.00
2019-03-15T22:36:29.731Z,3.90
2019-03-15T22:40:35.284Z,3.97
2019-03-15T22:44:40.771Z,4.07
2019-03-15T22:48:46.239Z,4.27
2019-03-15T22:52:51.605Z,4.23
2019-03-15T22:56:56.970Z,4.10
2019-03-15T23:01:02.398Z,4.07
2019-03-15T23:05:07.853Z,4.60
2019-03-15T23:09:13.358Z,4.40
2019-03-15T23:13:18.727Z,4.90
2019-03-15T23:17:24.288Z,5.30
2019-03-15T23:21:29.806Z,4.90
2019-03-15T23:25:35.541Z,5.97
2019-03-15T23:29:41.050Z,5.60
2019-03-15T23:33:47.059Z,5.30
2019-03-15T23:37:52.531Z,5.57
2019-03-15T23:41:58.228Z,6.47
2019-03-15T23:46:03.632Z,6.07
2019-03-15T23:50:09.262Z,7.57
2019-03-15T23:54:14.973Z,10.23
2019-03-15T23:58:20.442Z,10.17
